Time;durP1;ratioP1;P1;durP2;ratioP2;P2;SDS_P1;SDS_P2;PMS_P1;PMS_P2;Temp;Humidity;BMP_temperature;BMP_pressure;BME280_temperature;BME280_humidity;BME280_pressure;Samples;Min_cycle;Max_cycle;Signal;HPM_P1;HPM_P2
2023/08/12 00:00:39;;;;;;;9.33;4.73;;;12.10;99.90;;;;;;5111597;28;20239;-67
2023/08/12 00:03:27;;;;;;;10.27;4.70;;;12.00;99.90;;;;;;5112230;28;20217;-67
2023/08/12 00:06:14;;;;;;;8.70;4.70;;;11.90;99.90;;;;;;5111858;28;20288;-67
2023/08/12 00:09:03;;;;;;;10.80;4.63;;;11.80;99.90;;;;;;5111848;28;20616;-67
2023/08/12 00:11:51;;;;;;;10.80;5.20;;;11.80;99.90;;;;;;5111843;28;20654;-67
2023/08/12 00:14:38;;;;;;;9.53;4.90;;;11.80;99.90;;;;;;5111027;28;20191;-67
2023/08/12 00:17:25;;;;;;;9.93;4.73;;;11.80;99.90;;;;;;5111122;28;20593;-67
2023/08/12 00:20:12;;;;;;;8.30;4.63;;;11.70;99.90;;;;;;5111038;28;20571;-67
2023/08/12 00:23:00;;;;;;;7.80;5.17;;;11.70;99.90;;;;;;5110956;28;20207;-67
2023/08/12 00:25:50;;;;;;;8.70;4.90;;;11.70;99.90;;;;;;5111164;28;20195;-67
2023/08/12 00:28:37;;;;;;;9.50;4.80;;;11.70;99.90;;;;;;5111569;28;20206;-67
2023/08/12 00:31:24;;;;;;;9.27;5.00;;;11.70;99.90;;;;;;5110529;28;20200;-67
2023/08/12 00:34:12;;;;;;;9.70;5.13;;;11.70;99.90;;;;;;5111076;28;20198;-67
2023/08/12 00:36:59;;;;;;;7.03;4.80;;;11.60;99.90;;;;;;5110787;28;20661;-67
2023/08/12 00:39:46;;;;;;;7.53;5.20;;;11.60;99.90;;;;;;5111337;28;20194;-67
2023/08/12 00:42:35;;;;;;;9.90;4.70;;;11.50;99.90;;;;;;5110708;28;20201;-67
2023/08/12 00:45:22;;;;;;;10.60;4.80;;;11.50;99.90;;;;;;5111145;28;20199;-67
2023/08/12 00:48:09;;;;;;;7.67;5.10;;;11.50;99.90;;;;;;5111080;28;20202;-67
2023/08/12 00:50:56;;;;;;;8.40;5.10;;;11.50;99.90;;;;;;5110880;28;20196;-67
2023/08/12 00:53:44;;;;;;;8.63;5.43;;;11.30;99.90;;;;;;5110398;28;20198;-67
2023/08/12 00:56:31;;;;;;;9.40;4.93;;;11.20;99.90;;;;;;5110950;28;20201;-67
2023/08/12 00:59:19;;;;;;;9.53;5.03;;;11.20;99.90;;;;;;5111063;28;20196;-67
2023/08/12 01:02:07;;;;;;;9.33;5.27;;;11.20;99.90;;;;;;5111153;28;20230;-67
2023/08/12 01:04:54;;;;;;;8.83;5.50;;;11.20;99.90;;;;;;5110695;28;20211;-67
2023/08/12 01:07:41;;;;;;;12.17;5.87;;;11.20;99.90;;;;;;5111115;28;20237;-67
2023/08/12 01:10:30;;;;;;;8.67;4.80;;;11.20;99.90;;;;;;5110955;28;20205;-67
2023/08/12 01:13:21;;;;;;;10.27;5.43;;;11.20;99.90;;;;;;5111320;28;20203;-67
2023/08/12 01:16:09;;;;;;;11.10;5.57;;;11.20;99.90;;;;;;5110744;28;20195;-67
2023/08/12 01:18:56;;;;;;;8.50;5.30;;;11.20;99.90;;;;;;5110636;28;20199;-67
2023/08/12 01:21:45;;;;;;;11.80;5.53;;;11.20;99.90;;;;;;5110742;28;20196;-67
2023/08/12 01:24:36;;;;;;;11.73;5.93;;;11.20;99.90;;;;;;5111250;28;20709;-67
2023/08/12 01:27:24;;;;;;;8.43;5.33;;;11.10;99.90;;;;;;5107031;28;20197;-67
2023/08/12 01:30:12;;;;;;;11.17;5.77;;;11.10;99.90;;;;;;5109948;28;20213;-67
2023/08/12 01:33:04;;;;;;;9.80;5.23;;;11.10;99.90;;;;;;5111267;28;20229;-67
2023/08/12 01:35:54;;;;;;;10.27;5.60;;;11.10;99.90;;;;;;5113309;28;20208;-67
2023/08/12 01:38:41;;;;;;;12.20;5.60;;;11.10;99.90;;;;;;5114687;28;20300;-67
2023/08/12 01:41:30;;;;;;;8.70;5.60;;;11.00;99.90;;;;;;5114466;28;20209;-67
2023/08/12 01:44:17;;;;;;;12.07;6.03;;;11.00;99.90;;;;;;5114470;28;20933;-67
2023/08/12 01:47:05;;;;;;;11.27;5.90;;;11.00;99.90;;;;;;5115027;28;20263;-67
2023/08/12 01:49:52;;;;;;;10.40;5.70;;;11.00;99.90;;;;;;5115072;28;20542;-67
2023/08/12 01:52:39;;;;;;;12.97;6.03;;;11.00;99.90;;;;;;5114995;28;20736;-67
2023/08/12 01:55:26;;;;;;;14.93;6.30;;;11.00;99.90;;;;;;5115030;28;20208;-67
2023/08/12 01:58:15;;;;;;;11.47;6.43;;;11.00;99.90;;;;;;5114113;28;20202;-67
2023/08/12 02:01:02;;;;;;;16.60;7.03;;;11.00;99.90;;;;;;5114546;28;20370;-67
2023/08/12 02:03:49;;;;;;;12.73;6.80;;;11.00;99.90;;;;;;5114870;28;20216;-67
2023/08/12 02:06:37;;;;;;;10.77;6.63;;;10.90;99.90;;;;;;5114596;28;20191;-67
2023/08/12 02:09:24;;;;;;;12.60;6.70;;;10.80;99.90;;;;;;5114600;28;20218;-67
2023/08/12 02:12:11;;;;;;;11.50;6.63;;;10.80;99.90;;;;;;5114256;28;20229;-67
2023/08/12 02:15:00;;;;;;;9.50;7.00;;;10.80;99.90;;;;;;5114517;28;20198;-67
2023/08/12 02:17:47;;;;;;;10.53;7.10;;;10.80;99.90;;;;;;5114575;28;20193;-67
2023/08/12 02:20:34;;;;;;;13.53;7.63;;;10.80;99.90;;;;;;5115600;28;20677;-67
2023/08/12 02:23:21;;;;;;;12.33;7.93;;;10.80;99.90;;;;;;5113761;28;20221;-68
2023/08/12 02:26:08;;;;;;;10.63;6.47;;;10.80;99.90;;;;;;5114391;28;20202;-67
2023/08/12 02:28:56;;;;;;;14.27;7.60;;;10.80;99.90;;;;;;5113538;28;20198;-67
2023/08/12 02:31:44;;;;;;;13.93;7.97;;;10.80;99.90;;;;;;5114270;28;20659;-68
2023/08/12 02:34:31;;;;;;;12.47;8.07;;;10.80;99.90;;;;;;5113978;28;20196;-67
2023/08/12 02:37:19;;;;;;;13.47;7.23;;;10.80;99.90;;;;;;5114694;28;20232;-67
2023/08/12 02:40:07;;;;;;;15.57;7.07;;;10.80;99.90;;;;;;5113326;28;20199;-67
2023/08/12 02:42:54;;;;;;;12.97;7.87;;;10.80;99.90;;;;;;5114225;28;20201;-67
2023/08/12 02:45:42;;;;;;;11.80;8.37;;;10.80;99.90;;;;;;5113294;28;20547;-68
2023/08/12 02:48:30;;;;;;;19.70;9.07;;;10.80;99.90;;;;;;5114000;28;20196;-67
2023/08/12 02:51:18;;;;;;;15.80;9.23;;;10.80;99.90;;;;;;5113747;28;20212;-67
2023/08/12 02:54:05;;;;;;;18.63;9.57;;;10.80;99.90;;;;;;5113122;28;20193;-68
2023/08/12 02:56:52;;;;;;;13.37;9.10;;;10.80;99.90;;;;;;5113594;28;20204;-67
2023/08/12 02:59:40;;;;;;;29.13;9.47;;;10.80;99.90;;;;;;5113080;28;20578;-68
2023/08/12 03:02:27;;;;;;;11.90;8.43;;;10.80;99.90;;;;;;5114166;28;20210;-67
2023/08/12 03:05:16;;;;;;;14.63;8.43;;;10.80;99.90;;;;;;5114210;28;20215;-68
2023/08/12 03:08:03;;;;;;;16.00;8.23;;;10.80;99.90;;;;;;5114104;28;20205;-68
2023/08/12 03:10:50;;;;;;;14.90;9.17;;;10.80;99.90;;;;;;5113385;28;20191;-68
2023/08/12 03:13:38;;;;;;;17.77;10.27;;;10.90;99.90;;;;;;5112902;28;20277;-68
2023/08/12 03:16:25;;;;;;;15.67;9.90;;;10.90;99.90;;;;;;5113339;28;20296;-68
2023/08/12 03:19:12;;;;;;;16.30;9.53;;;10.90;99.90;;;;;;5112764;28;20696;-68
2023/08/12 03:22:01;;;;;;;14.40;9.40;;;10.90;99.90;;;;;;5113415;28;20239;-68
2023/08/12 03:24:49;;;;;;;14.93;8.90;;;10.90;99.90;;;;;;5112678;28;20725;-68
2023/08/12 03:27:36;;;;;;;16.47;8.73;;;10.90;99.90;;;;;;5113195;28;20241;-68
2023/08/12 03:30:23;;;;;;;22.70;11.70;;;11.00;99.90;;;;;;5112815;28;20580;-68
2023/08/12 03:33:11;;;;;;;14.87;10.57;;;11.00;99.90;;;;;;5113023;28;20192;-68
2023/08/12 03:35:58;;;;;;;17.27;9.37;;;11.10;99.90;;;;;;5112864;28;20188;-67
2023/08/12 03:38:46;;;;;;;17.80;9.43;;;11.00;99.90;;;;;;5112866;28;20202;-67
2023/08/12 03:41:34;;;;;;;18.17;9.90;;;11.00;99.90;;;;;;5112799;28;20192;-68
2023/08/12 03:44:21;;;;;;;15.87;10.03;;;11.00;99.90;;;;;;5112677;28;20218;-68
2023/08/12 03:47:08;;;;;;;20.33;11.23;;;11.10;99.90;;;;;;5112193;28;20545;-68
2023/08/12 03:49:55;;;;;;;17.50;10.63;;;11.10;99.90;;;;;;5112765;28;20204;-68
2023/08/12 03:52:42;;;;;;;16.00;10.73;;;11.10;99.90;;;;;;5112445;28;20264;-67
2023/08/12 03:55:32;;;;;;;17.77;11.63;;;11.10;99.90;;;;;;5111948;28;20635;-68
2023/08/12 03:58:20;;;;;;;19.83;11.03;;;11.20;99.90;;;;;;5111954;28;20289;-68
2023/08/12 04:01:07;;;;;;;16.27;11.40;;;11.20;99.90;;;;;;5111871;28;20269;-68
2023/08/12 04:03:54;;;;;;;17.20;10.93;;;11.30;99.90;;;;;;5112494;28;20686;-68
2023/08/12 04:06:41;;;;;;;19.00;11.40;;;11.30;99.90;;;;;;5112322;28;20202;-67
2023/08/12 04:09:29;;;;;;;16.70;10.03;;;11.30;99.90;;;;;;5111520;28;20195;-68
2023/08/12 04:12:17;;;;;;;22.43;11.40;;;11.40;99.90;;;;;;5111608;28;20203;-68
2023/08/12 04:15:05;;;;;;;16.13;11.33;;;11.40;99.90;;;;;;5111441;28;20190;-67
2023/08/12 04:17:53;;;;;;;16.67;11.00;;;11.50;99.90;;;;;;5111408;28;20223;-68
2023/08/12 04:20:40;;;;;;;21.30;11.57;;;11.60;99.90;;;;;;5112109;28;20257;-68
2023/08/12 04:23:27;;;;;;;16.77;11.83;;;11.70;99.90;;;;;;5111649;28;20549;-68
2023/08/12 04:26:14;;;;;;;18.30;12.07;;;11.80;99.90;;;;;;5112532;28;20210;-68
2023/08/12 04:29:03;;;;;;;18.23;12.07;;;11.90;99.90;;;;;;5111854;28;20609;-68
2023/08/12 04:31:52;;;;;;;20.30;12.33;;;12.00;99.90;;;;;;5111852;28;20195;-68
2023/08/12 04:34:39;;;;;;;18.17;12.80;;;12.00;99.90;;;;;;5111864;28;20195;-68
2023/08/12 04:37:27;;;;;;;17.90;12.07;;;12.20;99.90;;;;;;5112096;28;20216;-68
2023/08/12 04:40:15;;;;;;;18.73;12.47;;;12.30;99.90;;;;;;5111551;28;20283;-68
2023/08/12 04:43:02;;;;;;;24.23;13.13;;;12.40;99.90;;;;;;5111853;28;20673;-68
2023/08/12 04:45:51;;;;;;;18.27;12.97;;;12.60;99.90;;;;;;5111766;28;20275;-68
2023/08/12 04:48:39;;;;;;;18.40;11.70;;;12.70;99.90;;;;;;5112195;28;20203;-68
2023/08/12 04:51:26;;;;;;;18.93;13.10;;;12.80;99.90;;;;;;5111528;28;20248;-68
2023/08/12 04:54:14;;;;;;;21.93;13.37;;;12.90;99.90;;;;;;5110744;28;20197;-68
2023/08/12 04:57:01;;;;;;;20.20;13.60;;;13.00;99.90;;;;;;5111468;28;20199;-68
2023/08/12 04:59:48;;;;;;;22.20;13.50;;;13.20;99.90;;;;;;5111613;28;20201;-68
2023/08/12 05:02:37;;;;;;;22.17;13.20;;;13.40;99.90;;;;;;5112415;28;20216;-68
2023/08/12 05:05:24;;;;;;;24.23;13.50;;;13.50;99.90;;;;;;5111318;28;20218;-68
2023/08/12 05:08:11;;;;;;;24.67;14.73;;;13.60;99.90;;;;;;5111220;28;20219;-68
2023/08/12 05:10:58;;;;;;;29.87;18.93;;;13.80;99.90;;;;;;5111116;28;20198;-68
2023/08/12 05:13:45;;;;;;;22.60;15.83;;;14.00;99.90;;;;;;5111622;28;20578;-68
2023/08/12 05:16:32;;;;;;;23.80;16.33;;;14.20;99.90;;;;;;5111289;28;20197;-68
2023/08/12 05:19:21;;;;;;;36.73;21.50;;;14.40;99.90;;;;;;5111278;28;20209;-68
2023/08/12 05:22:09;;;;;;;33.77;19.90;;;14.50;99.90;;;;;;5111233;28;20193;-68
2023/08/12 05:24:56;;;;;;;28.90;19.43;;;14.70;99.90;;;;;;5111201;28;20220;-68
2023/08/12 05:27:43;;;;;;;36.47;22.23;;;14.90;99.90;;;;;;5111335;28;20198;-68
2023/08/12 05:30:30;;;;;;;33.87;21.57;;;15.10;99.90;;;;;;5111438;28;20205;-68
2023/08/12 05:33:18;;;;;;;33.77;21.40;;;15.20;99.90;;;;;;5111167;28;20211;-68
2023/08/12 05:36:06;;;;;;;34.10;20.37;;;15.40;99.90;;;;;;5110954;28;20222;-68
2023/08/12 05:38:54;;;;;;;27.83;18.87;;;15.60;99.90;;;;;;5111594;28;20208;-68
2023/08/12 05:41:41;;;;;;;29.83;19.10;;;15.70;99.90;;;;;;5110561;28;20194;-68
2023/08/12 05:44:28;;;;;;;31.70;18.70;;;15.90;99.90;;;;;;5110491;28;20301;-68
2023/08/12 05:47:15;;;;;;;31.57;18.63;;;16.00;99.90;;;;;;5110698;28;20203;-68
2023/08/12 05:50:02;;;;;;;34.43;17.23;;;16.20;99.90;;;;;;5110624;28;20325;-68
2023/08/12 05:52:51;;;;;;;27.77;15.70;;;16.40;99.90;;;;;;5110794;28;20234;-68
2023/08/12 05:55:38;;;;;;;25.40;15.50;;;16.50;99.90;;;;;;5110622;28;20206;-68
2023/08/12 05:58:25;;;;;;;24.83;15.27;;;16.70;99.90;;;;;;5110958;28;20205;-68
2023/08/12 06:01:13;;;;;;;25.13;13.93;;;16.90;99.90;;;;;;5111279;28;20239;-68
2023/08/12 06:04:00;;;;;;;27.27;14.70;;;17.00;99.90;;;;;;5110172;28;20195;-67
2023/08/12 06:06:47;;;;;;;20.27;13.30;;;17.20;99.90;;;;;;5110397;28;20198;-67
2023/08/12 06:09:35;;;;;;;22.30;11.67;;;17.40;99.90;;;;;;5110278;28;20198;-67
2023/08/12 06:12:23;;;;;;;23.23;12.53;;;17.60;99.90;;;;;;5110080;28;20195;-68
2023/08/12 06:15:10;;;;;;;22.90;13.13;;;17.70;99.90;;;;;;5110146;28;20274;-67
2023/08/12 06:17:58;;;;;;;22.53;13.00;;;17.90;99.90;;;;;;5110201;28;20188;-67
2023/08/12 06:20:45;;;;;;;23.23;13.30;;;18.00;99.90;;;;;;5110140;28;20215;-67
2023/08/12 06:23:32;;;;;;;23.97;13.37;;;18.10;99.90;;;;;;5113598;28;20196;-67
2023/08/12 06:26:21;;;;;;;21.63;14.10;;;18.30;99.90;;;;;;5113823;28;20219;-68
2023/08/12 06:29:08;;;;;;;22.40;12.40;;;18.50;99.90;;;;;;5114962;28;20282;-67
2023/08/12 06:31:55;;;;;;;20.53;11.90;;;18.60;99.90;;;;;;5113694;28;20221;-67
2023/08/12 06:34:42;;;;;;;23.10;12.80;;;18.70;99.90;;;;;;5114226;28;20202;-67
2023/08/12 06:37:30;;;;;;;17.07;10.97;;;18.80;99.90;;;;;;5114213;28;20206;-67
2023/08/12 06:40:17;;;;;;;20.17;11.17;;;18.90;99.90;;;;;;5113402;28;20251;-67
2023/08/12 06:43:07;;;;;;;18.77;11.10;;;19.00;99.90;;;;;;5113877;28;20210;-67
2023/08/12 06:45:54;;;;;;;17.77;11.70;;;19.10;99.90;;;;;;5113832;28;20269;-67
2023/08/12 06:48:41;;;;;;;17.57;10.67;;;19.20;99.90;;;;;;5114027;28;20244;-67
2023/08/12 06:51:28;;;;;;;18.20;10.67;;;19.10;99.90;;;;;;5114629;28;20577;-67
2023/08/12 06:54:15;;;;;;;16.97;9.60;;;19.30;99.90;;;;;;5114254;28;20195;-68
2023/08/12 06:57:03;;;;;;;17.03;10.60;;;19.40;99.90;;;;;;5113021;28;20612;-67
2023/08/12 06:59:51;;;;;;;26.00;11.30;;;19.30;99.90;;;;;;5113713;28;20285;-67
2023/08/12 07:02:40;;;;;;;20.50;10.87;;;19.40;99.90;;;;;;5113564;28;20198;-67
2023/08/12 07:05:27;;;;;;;20.60;10.90;;;19.40;99.90;;;;;;5113496;28;20210;-67
2023/08/12 07:08:14;;;;;;;18.13;10.70;;;19.50;99.90;;;;;;5113363;28;20198;-67
2023/08/12 07:11:01;;;;;;;19.23;9.70;;;19.60;99.90;;;;;;5113656;28;20199;-67
2023/08/12 07:13:48;;;;;;;18.87;9.60;;;19.70;99.90;;;;;;5113161;28;20252;-67
2023/08/12 07:16:37;;;;;;;19.00;9.13;;;19.90;99.90;;;;;;5112708;28;20190;-67
2023/08/12 07:19:24;;;;;;;21.00;9.53;;;19.90;99.90;;;;;;5112896;28;20199;-67
2023/08/12 07:22:11;;;;;;;14.07;8.23;;;20.20;99.90;;;;;;5112868;28;20247;-67
2023/08/12 07:24:59;;;;;;;18.00;8.47;;;20.40;99.90;;;;;;5113588;28;20222;-67
2023/08/12 07:27:47;;;;;;;21.03;7.87;;;20.50;99.90;;;;;;5113121;28;20282;-67
2023/08/12 07:30:35;;;;;;;16.27;8.63;;;20.50;99.90;;;;;;5112460;28;20202;-67
2023/08/12 07:33:24;;;;;;;14.10;7.50;;;20.40;99.90;;;;;;5112393;28;20231;-67
2023/08/12 07:36:11;;;;;;;16.03;7.03;;;20.70;99.90;;;;;;5112917;28;20197;-67
2023/08/12 07:38:58;;;;;;;14.17;5.93;;;20.90;99.90;;;;;;5112689;28;20252;-67
2023/08/12 07:41:46;;;;;;;10.13;5.77;;;21.10;99.90;;;;;;5112874;28;20256;-67
2023/08/12 07:44:33;;;;;;;11.40;6.00;;;21.40;99.90;;;;;;5112853;28;20195;-67
2023/08/12 07:47:20;;;;;;;14.90;6.27;;;21.70;99.90;;;;;;5112350;28;20202;-67
2023/08/12 07:50:10;;;;;;;13.03;6.97;;;21.80;99.90;;;;;;5112173;28;20203;-67
2023/08/12 07:52:57;;;;;;;19.73;6.80;;;21.90;99.90;;;;;;5112291;28;20233;-67
2023/08/12 07:55:45;;;;;;;16.13;6.70;;;22.10;99.90;;;;;;5111914;28;20203;-67
2023/08/12 07:58:32;;;;;;;13.43;6.70;;;22.20;99.90;;;;;;5111984;28;20203;-67
2023/08/12 08:01:19;;;;;;;16.63;6.83;;;22.50;99.90;;;;;;5110152;28;20239;-67
2023/08/12 08:04:06;;;;;;;14.53;5.93;;;22.70;99.60;;;;;;5112606;28;20680;-67
2023/08/12 08:06:55;;;;;;;13.37;5.80;;;22.70;99.90;;;;;;5111613;28;20356;-67
2023/08/12 08:09:42;;;;;;;12.47;5.73;;;22.90;99.90;;;;;;5112375;28;20203;-66
2023/08/12 08:12:29;;;;;;;13.10;5.90;;;23.10;99.90;;;;;;5112360;28;20195;-67
2023/08/12 08:15:17;;;;;;;14.97;5.63;;;23.20;99.90;;;;;;5113307;28;20732;-67
2023/08/12 08:18:04;;;;;;;15.40;7.20;;;23.40;98.30;;;;;;5112110;28;20581;-67
2023/08/12 08:20:51;;;;;;;13.35;6.18;;;23.70;99.90;;;;;;5111721;28;20253;-67
2023/08/12 08:23:41;;;;;;;13.82;5.60;;;23.90;99.90;;;;;;5112733;28;20202;-67
2023/08/12 08:26:28;;;;;;;17.50;6.25;;;24.10;99.90;;;;;;5111930;28;20211;-67
2023/08/12 08:29:15;;;;;;;11.25;5.65;;;24.30;99.90;;;;;;5112095;28;20210;-67
2023/08/12 08:32:03;;;;;;;14.98;6.80;;;24.50;99.00;;;;;;5111197;28;20203;-67
2023/08/12 08:34:51;;;;;;;10.15;5.93;;;24.70;99.90;;;;;;5112399;28;20683;-67
2023/08/12 08:37:38;;;;;;;14.68;5.82;;;24.80;99.40;;;;;;5111049;28;20248;-67
2023/08/12 08:40:26;;;;;;;7.72;4.03;;;25.10;97.70;;;;;;5111160;28;20507;-67
2023/08/12 08:43:15;;;;;;;7.30;3.92;;;25.20;82.80;;;;;;5111245;28;20195;-67
2023/08/12 08:46:03;;;;;;;7.82;2.83;;;24.90;91.80;;;;;;5109606;28;20212;-67
2023/08/12 08:48:50;;;;;;;8.73;4.03;;;24.20;70.60;;;;;;5112230;28;20202;-67
2023/08/12 08:51:37;;;;;;;12.88;4.78;;;24.10;75.80;;;;;;5110968;28;20219;-67
2023/08/12 08:54:24;;;;;;;12.27;3.78;;;24.50;85.00;;;;;;5112391;28;20776;-67
2023/08/12 08:57:13;;;;;;;13.68;4.10;;;24.60;73.90;;;;;;5111145;28;20200;-67
2023/08/12 09:00:00;;;;;;;10.23;4.70;;;24.80;78.60;;;;;;5112210;28;20199;-67
2023/08/12 09:02:48;;;;;;;8.30;3.85;;;24.90;75.50;;;;;;5111695;28;20292;-67
2023/08/12 09:05:35;;;;;;;8.18;3.70;;;25.00;71.40;;;;;;5110207;28;20211;-67
2023/08/12 09:08:22;;;;;;;9.13;3.80;;;24.70;69.00;;;;;;5111402;28;20202;-67
2023/08/12 09:11:10;;;;;;;7.88;3.67;;;24.80;83.60;;;;;;5111615;28;20685;-67
2023/08/12 09:13:59;;;;;;;8.05;3.72;;;24.90;75.80;;;;;;5111144;28;20217;-67
2023/08/12 09:16:46;;;;;;;8.63;3.17;;;24.50;71.60;;;;;;5110709;28;20240;-67
2023/08/12 09:19:33;;;;;;;6.30;3.78;;;24.60;72.60;;;;;;5110843;28;20202;-67
2023/08/12 09:22:20;;;;;;;8.80;3.42;;;24.30;71.20;;;;;;5110719;28;20684;-67
2023/08/12 09:25:09;;;;;;;7.18;3.45;;;24.10;73.40;;;;;;5111292;28;20336;-67
2023/08/12 09:27:56;;;;;;;5.22;3.25;;;24.30;71.60;;;;;;5111145;28;20272;-67
2023/08/12 09:30:45;;;;;;;6.95;3.00;;;24.70;74.60;;;;;;5111054;28;20195;-67
2023/08/12 09:33:32;;;;;;;7.38;3.22;;;24.30;72.90;;;;;;5111286;28;20230;-67
2023/08/12 09:36:19;;;;;;;8.02;3.05;;;24.60;85.90;;;;;;5110562;28;20203;-67
2023/08/12 09:39:08;;;;;;;4.85;3.10;;;25.30;83.40;;;;;;5111088;28;20715;-67
2023/08/12 09:41:55;;;;;;;7.00;2.80;;;25.70;73.50;;;;;;5111347;28;20196;-67
2023/08/12 09:44:43;;;;;;;5.95;3.03;;;26.10;89.10;;;;;;5110419;28;20188;-67
2023/08/12 09:47:31;;;;;;;4.32;2.75;;;26.30;75.50;;;;;;5111005;28;20226;-67
2023/08/12 09:50:18;;;;;;;5.00;3.20;;;26.20;70.70;;;;;;5111204;28;20199;-67
2023/08/12 09:53:06;;;;;;;4.82;3.28;;;26.10;66.30;;;;;;5110847;28;20896;-67
2023/08/12 09:55:53;;;;;;;6.03;3.20;;;26.30;72.50;;;;;;5111327;28;20191;-67
2023/08/12 09:58:42;;;;;;;5.57;3.25;;;26.00;68.40;;;;;;5114423;28;20244;-67
2023/08/12 10:01:30;;;;;;;4.75;2.80;;;25.90;68.50;;;;;;5114654;28;20721;-67
2023/08/12 10:04:20;;;;;;;8.00;3.20;;;26.00;67.70;;;;;;5114521;28;20283;-67
2023/08/12 10:07:07;;;;;;;5.18;3.17;;;26.30;68.80;;;;;;5114158;28;20771;-67
2023/08/12 10:09:55;;;;;;;4.78;3.45;;;25.50;68.20;;;;;;5114728;28;20234;-67
2023/08/12 10:12:42;;;;;;;7.07;3.42;;;25.20;67.30;;;;;;5114547;28;20206;-66
2023/08/12 10:15:29;;;;;;;4.68;2.90;;;25.70;68.20;;;;;;5114081;28;20195;-67
2023/08/12 10:18:16;;;;;;;6.10;2.80;;;25.80;69.90;;;;;;5114445;28;20661;-67
2023/08/12 10:21:05;;;;;;;4.95;2.80;;;25.50;66.40;;;;;;5114175;28;20202;-67
2023/08/12 10:23:53;;;;;;;4.85;2.63;;;25.60;65.10;;;;;;5114055;28;20245;-67
2023/08/12 10:26:40;;;;;;;5.25;2.85;;;25.80;67.70;;;;;;5113624;28;20214;-67
2023/08/12 10:29:28;;;;;;;6.47;2.50;;;26.20;75.00;;;;;;5114246;28;20670;-67
2023/08/12 10:32:17;;;;;;;6.22;2.70;;;26.50;65.50;;;;;;5114062;28;20202;-67
2023/08/12 10:35:05;;;;;;;7.93;2.72;;;26.60;68.30;;;;;;5113523;28;20196;-67
2023/08/12 10:37:54;;;;;;;4.53;2.30;;;26.10;64.50;;;;;;5114099;28;20191;-67
2023/08/12 10:40:41;;;;;;;4.60;2.67;;;26.20;64.10;;;;;;5114183;28;20203;-67
2023/08/12 10:43:30;;;;;;;5.40;2.22;;;26.90;65.60;;;;;;5113776;28;20718;-67
2023/08/12 10:46:23;;;;;;;10.18;2.55;;;27.00;59.90;;;;;;5113281;28;20211;-67
2023/08/12 10:49:15;;;;;;;5.38;2.60;;;26.90;64.50;;;;;;5113764;28;20198;-67
2023/08/12 10:52:03;;;;;;;5.65;2.58;;;27.50;61.50;;;;;;5113470;28;20230;-67
2023/08/12 10:54:59;;;;;;;5.82;3.03;;;27.00;59.90;;;;;;5113342;28;20199;-67
2023/08/12 10:57:47;;;;;;;5.43;3.05;;;27.10;60.80;;;;;;5113928;28;20300;-67
2023/08/12 11:00:34;;;;;;;4.22;2.70;;;26.40;63.60;;;;;;5114067;28;20223;-67
2023/08/12 11:03:22;;;;;;;6.32;3.15;;;26.10;68.00;;;;;;5113659;28;20190;-67
2023/08/12 11:06:10;;;;;;;6.50;2.80;;;26.10;63.50;;;;;;5114053;28;20222;-66
2023/08/12 11:09:08;;;;;;;4.47;2.55;;;26.60;71.80;;;;;;5112923;28;20203;-67
2023/08/12 11:12:09;;;;;;;3.47;2.55;;;27.20;69.30;;;;;;5113020;28;20195;-67
2023/08/12 11:15:01;;;;;;;4.65;2.67;;;26.90;61.60;;;;;;5112940;28;20195;-67
2023/08/12 11:17:57;;;;;;;4.30;2.28;;;26.70;67.80;;;;;;5113578;28;20203;-67
2023/08/12 11:20:45;;;;;;;4.43;2.60;;;27.10;63.70;;;;;;5113265;28;20191;-66
2023/08/12 11:23:38;;;;;;;5.20;2.47;;;27.20;63.40;;;;;;5113289;28;20241;-66
2023/08/12 11:26:28;;;;;;;5.93;2.92;;;27.10;64.30;;;;;;5112780;28;20215;-67
2023/08/12 11:29:17;;;;;;;5.50;2.63;;;27.10;61.20;;;;;;5112626;28;20209;-66
2023/08/12 11:32:06;;;;;;;4.22;3.00;;;26.90;61.80;;;;;;5112229;28;20324;-67
2023/08/12 11:34:53;;;;;;;4.22;2.50;;;26.50;60.00;;;;;;5112251;28;20203;-66
2023/08/12 11:37:41;;;;;;;8.07;2.92;;;27.10;65.40;;;;;;5113079;28;20203;-66
2023/08/12 11:40:29;;;;;;;4.03;2.70;;;27.50;60.80;;;;;;5113064;28;20499;-67
2023/08/12 11:43:16;;;;;;;6.03;3.00;;;27.50;61.20;;;;;;5111842;28;20202;-66
2023/08/12 11:46:06;;;;;;;6.75;2.90;;;28.10;65.90;;;;;;5112727;28;20225;-67
2023/08/12 11:49:04;;;;;;;3.67;2.50;;;28.70;67.40;;;;;;5112019;28;20206;-67
2023/08/12 11:51:53;;;;;;;5.28;2.70;;;29.00;57.40;;;;;;5112711;28;20224;-66
2023/08/12 11:54:44;;;;;;;5.38;2.83;;;28.70;59.50;;;;;;5111677;28;20202;-67
2023/08/12 11:57:34;;;;;;;7.78;2.90;;;27.90;57.30;;;;;;5112280;28;20199;-67
2023/08/12 12:00:26;;;;;;;4.43;2.95;;;27.30;59.00;;;;;;5112141;28;20207;-67
2023/08/12 12:03:20;;;;;;;4.38;2.58;;;27.70;62.90;;;;;;5112499;28;20546;-67
2023/08/12 12:06:14;;;;;;;4.93;2.60;;;27.40;61.70;;;;;;5112318;28;20219;-66
2023/08/12 12:09:18;;;;;;;4.38;2.28;;;27.70;63.80;;;;;;5112411;28;20575;-66
2023/08/12 12:12:07;;;;;;;4.07;2.60;;;28.20;59.30;;;;;;5112294;28;20661;-67
2023/08/12 12:14:56;;;;;;;7.50;2.30;;;28.40;61.10;;;;;;5111685;28;20582;-66
2023/08/12 12:17:46;;;;;;;2.72;2.20;;;28.10;64.30;;;;;;5112317;28;20191;-67
2023/08/12 12:20:35;;;;;;;4.25;2.65;;;28.30;61.60;;;;;;5110967;28;20203;-67
2023/08/12 12:23:27;;;;;;;8.07;2.30;;;28.30;62.40;;;;;;5112653;28;20199;-67
2023/08/12 12:26:14;;;;;;;5.10;2.50;;;28.40;57.70;;;;;;5111531;28;20227;-67
2023/08/12 12:29:03;;;;;;;3.72;2.00;;;27.90;57.20;;;;;;5113126;28;20199;-66
2023/08/12 12:31:50;;;;;;;4.90;2.67;;;27.80;59.00;;;;;;5111326;28;20700;-66
2023/08/12 12:34:38;;;;;;;2.78;2.22;;;26.60;58.50;;;;;;5110464;28;20199;-66
2023/08/12 12:37:27;;;;;;;5.32;2.08;;;27.30;63.60;;;;;;5112644;28;20662;-67
2023/08/12 12:40:14;;;;;;;3.58;2.13;;;28.00;59.10;;;;;;5111028;28;20203;-66
2023/08/12 12:43:02;;;;;;;4.70;2.30;;;28.10;58.30;;;;;;5111305;28;20199;-67
2023/08/12 12:45:54;;;;;;;5.28;1.95;;;28.40;57.00;;;;;;5111594;28;20279;-66
2023/08/12 12:48:41;;;;;;;5.85;2.00;;;28.30;58.00;;;;;;5112042;28;20199;-66
2023/08/12 12:51:29;;;;;;;4.40;1.98;;;27.70;55.60;;;;;;5111310;28;20274;-66
2023/08/12 12:54:19;;;;;;;2.50;1.88;;;27.20;55.50;;;;;;5111131;28;20240;-67
2023/08/12 12:57:06;;;;;;;3.97;2.13;;;27.70;59.60;;;;;;5110881;28;20191;-66
2023/08/12 12:59:53;;;;;;;3.80;2.15;;;28.20;60.40;;;;;;5111791;28;20195;-66
2023/08/12 13:02:42;;;;;;;3.95;2.25;;;28.60;58.40;;;;;;5112261;28;20229;-66
2023/08/12 13:05:29;;;;;;;2.88;2.10;;;28.90;55.20;;;;;;5112250;28;20552;-66
2023/08/12 13:08:17;;;;;;;4.53;2.30;;;28.80;56.70;;;;;;5112497;28;20252;-66
2023/08/12 13:11:08;;;;;;;2.25;2.05;;;29.00;53.50;;;;;;5111351;28;20195;-66
2023/08/12 13:13:56;;;;;;;2.88;2.13;;;29.30;56.60;;;;;;5111186;28;20572;-66
2023/08/12 13:16:43;;;;;;;3.92;2.20;;;29.30;57.40;;;;;;5111288;28;20684;-66
2023/08/12 13:19:30;;;;;;;3.78;2.30;;;28.30;54.10;;;;;;5111371;28;20199;-66
2023/08/12 13:22:17;;;;;;;5.38;2.50;;;28.00;56.00;;;;;;5111307;28;20585;-66
2023/08/12 13:25:05;;;;;;;3.05;2.15;;;28.70;57.40;;;;;;5110907;28;20195;-66
2023/08/12 13:27:54;;;;;;;3.20;2.13;;;29.20;56.10;;;;;;5110721;28;20215;-66
2023/08/12 13:30:41;;;;;;;4.75;2.28;;;28.50;54.80;;;;;;5111286;28;20199;-66
2023/08/12 13:33:29;;;;;;;3.78;2.20;;;28.70;54.60;;;;;;5114920;28;20286;-66
2023/08/12 13:36:19;;;;;;;5.20;2.33;;;29.20;56.10;;;;;;5114613;28;20195;-67
2023/08/12 13:39:06;;;;;;;4.85;2.30;;;29.60;54.40;;;;;;5115138;28;20195;-66
2023/08/12 13:41:54;;;;;;;3.75;2.10;;;28.30;56.30;;;;;;5115296;28;20198;-66
2023/08/12 13:44:43;;;;;;;6.00;2.40;;;28.80;55.20;;;;;;5115668;28;20211;-66
2023/08/12 13:47:34;;;;;;;3.50;2.20;;;28.50;58.40;;;;;;5115040;28;20211;-66
2023/08/12 13:50:23;;;;;;;3.38;2.25;;;28.40;56.80;;;;;;5115321;28;20677;-67
2023/08/12 13:53:10;;;;;;;6.88;2.28;;;28.60;58.70;;;;;;5114105;28;20199;-66
2023/08/12 13:55:58;;;;;;;7.07;2.13;;;28.30;55.00;;;;;;5114619;28;20210;-66
2023/08/12 13:58:45;;;;;;;5.40;1.98;;;28.40;54.10;;;;;;5114857;28;20699;-67
2023/08/12 14:01:33;;;;;;;4.28;1.90;;;29.00;55.50;;;;;;5113465;28;20710;-66
2023/08/12 14:04:21;;;;;;;5.10;1.67;;;29.60;52.00;;;;;;5115079;28;20249;-66
2023/08/12 14:07:08;;;;;;;3.60;1.60;;;30.00;50.60;;;;;;5114620;28;20215;-66
2023/08/12 14:09:56;;;;;;;4.10;1.77;;;30.10;53.10;;;;;;5114760;28;20577;-66
2023/08/12 14:12:43;;;;;;;3.92;1.77;;;30.10;50.00;;;;;;5113968;28;20231;-67
2023/08/12 14:15:30;;;;;;;2.25;1.70;;;30.30;50.70;;;;;;5114721;28;20276;-66
2023/08/12 14:18:19;;;;;;;7.03;1.80;;;30.00;50.80;;;;;;5114628;28;20230;-66
2023/08/12 14:21:06;;;;;;;5.13;2.17;;;30.00;50.50;;;;;;5114341;28;20272;-66
2023/08/12 14:23:53;;;;;;;4.07;1.80;;;30.30;50.30;;;;;;5113908;28;20202;-66